Time;durP1;ratioP1;P1;durP2;ratioP2;P2;SDS_P1;SDS_P2;PMS_P1;PMS_P2;Temp;Humidity;BMP_temperature;BMP_pressure;BME280_temperature;BME280_humidity;BME280_pressure;Samples;Min_cycle;Max_cycle;Signal;HPM_P1;HPM_P2
2022/12/18 00:00:47;;;;;;;67.75;21.15;;;;;;;-143.48;87.77;118439.88;5054636;28;20027;-70
2022/12/18 00:03:13;;;;;;;64.72;20.15;;;;;;;-143.48;87.73;118439.88;5055931;28;20029;-70
2022/12/18 00:05:50;;;;;;;68.22;20.80;;;;;;;-143.48;88.70;118439.88;5055950;28;20040;-73
2022/12/18 00:08:16;;;;;;;73.25;22.95;;;;;;;-143.48;89.29;118439.88;5054688;28;20029;-72
2022/12/18 00:10:42;;;;;;;71.45;22.30;;;;;;;-143.48;89.25;118439.88;5056056;28;20029;-70
2022/12/18 00:13:09;;;;;;;67.93;21.30;;;;;;;-143.48;89.04;118439.88;5037952;28;20082;-70
2022/12/18 00:15:35;;;;;;;67.70;22.23;;;;;;;-143.48;88.87;118439.88;5055677;28;20431;-72
2022/12/18 00:18:00;;;;;;;72.78;23.35;;;;;;;-143.48;87.52;118439.88;5055632;28;20419;-72
2022/12/18 00:20:25;;;;;;;72.72;22.73;;;;;;;-143.48;88.23;118439.88;5055692;28;20079;-72
2022/12/18 00:22:54;;;;;;;68.97;23.65;;;;;;;-143.48;87.75;118439.88;5037409;28;20049;-71
2022/12/18 00:25:20;;;;;;;70.95;22.88;;;;;;;-143.48;87.82;118439.88;5055438;28;20029;-72
2022/12/18 00:27:45;;;;;;;68.95;22.63;;;;;;;-143.48;87.83;118439.88;5055349;28;20133;-71
2022/12/18 00:30:11;;;;;;;59.90;20.95;;;;;;;-143.48;88.28;118439.88;5037510;28;20036;-70
2022/12/18 00:32:37;;;;;;;64.18;21.35;;;;;;;-143.48;88.29;118439.88;5054164;28;20035;-70
2022/12/18 00:35:03;;;;;;;70.15;24.05;;;;;;;-143.48;88.84;118439.88;5035363;28;20025;-70
2022/12/18 00:37:28;;;;;;;65.13;22.08;;;;;;;-143.48;87.99;118439.88;5053487;28;20025;-70
2022/12/18 00:39:53;;;;;;;68.68;23.55;;;;;;;-143.48;86.32;118439.88;5053438;28;20025;-70
2022/12/18 00:45:03;;;;;;;61.25;21.90;;;;;;;-143.48;86.64;118439.88;5052685;28;20040;-70
2022/12/18 00:47:28;;;;;;;59.45;21.55;;;;;;;-143.48;85.88;118439.88;5052569;28;20419;-70
2022/12/18 00:49:53;;;;;;;66.63;22.10;;;;;;;-143.48;85.72;118439.88;5036547;28;20029;-72
2022/12/18 00:52:19;;;;;;;64.95;21.90;;;;;;;-143.48;87.54;118439.88;5052888;28;20056;-71
2022/12/18 00:54:44;;;;;;;64.63;22.23;;;;;;;-143.48;86.97;118439.88;5052366;28;20453;-71
2022/12/18 00:57:10;;;;;;;55.92;19.50;;;;;;;-143.48;87.32;118439.88;5052336;28;20025;-70
2022/12/18 00:59:35;;;;;;;54.97;20.02;;;;;;;-143.48;87.16;118439.88;5052034;28;20021;-70
2022/12/18 01:02:00;;;;;;;59.53;21.65;;;;;;;-143.48;87.16;118439.88;5052572;28;20114;-70
2022/12/18 01:04:26;;;;;;;65.60;21.50;;;;;;;-143.48;87.23;118439.88;5052643;28;20103;-71
2022/12/18 01:06:51;;;;;;;59.30;21.40;;;;;;;-143.48;86.17;118439.88;5035837;28;20032;-72
2022/12/18 01:09:16;;;;;;;58.78;20.30;;;;;;;-143.48;86.19;118439.88;5053795;28;20103;-72
2022/12/18 01:11:41;;;;;;;57.28;20.77;;;;;;;-143.48;85.70;118439.88;5054674;28;20036;-71
2022/12/18 01:14:07;;;;;;;53.92;19.52;;;;;;;-143.48;84.89;118439.88;5054551;28;20044;-71
2022/12/18 01:16:32;;;;;;;58.80;21.17;;;;;;;-143.48;86.94;118439.88;5054544;28;20090;-71
2022/12/18 01:18:58;;;;;;;66.32;19.95;;;;;;;-143.48;87.39;118439.88;5054379;28;20025;-71
2022/12/18 01:21:23;;;;;;;56.55;20.33;;;;;;;-143.48;87.99;118439.88;5054419;28;20032;-71
2022/12/18 01:23:56;;;;;;;63.15;21.10;;;;;;;-143.48;87.50;118439.88;5036298;28;20049;-71
2022/12/18 01:26:21;;;;;;;61.90;20.92;;;;;;;-143.48;87.21;118439.88;5054279;28;20048;-71
2022/12/18 01:28:47;;;;;;;62.65;20.20;;;;;;;-143.48;85.90;118439.88;5036499;28;20032;-71
2022/12/18 01:31:19;;;;;;;54.88;18.80;;;;;;;-143.48;86.68;118439.88;5054234;28;20025;-71
2022/12/18 01:33:48;;;;;;;64.00;19.77;;;;;;;-143.48;87.78;118439.88;5054240;28;20028;-71
2022/12/18 01:36:25;;;;;;;56.78;20.48;;;;;;;-143.48;87.95;118439.88;5054140;28;20029;-72
2022/12/18 01:38:51;;;;;;;68.28;22.10;;;;;;;-143.48;88.38;118439.88;5036276;28;20464;-72
2022/12/18 01:41:19;;;;;;;66.38;20.73;;;;;;;-143.48;87.26;118439.88;5054034;28;20029;-71
2022/12/18 01:43:53;;;;;;;58.08;20.73;;;;;;;-143.48;87.52;118439.88;5036187;28;20029;-71
2022/12/18 01:46:21;;;;;;;59.58;21.35;;;;;;;-143.48;87.56;118439.88;5053862;28;20067;-71
2022/12/18 01:48:49;;;;;;;53.92;18.38;;;;;;;-143.48;86.99;118439.88;5052615;28;20487;-71
2022/12/18 01:51:15;;;;;;;62.50;19.92;;;;;;;-143.48;87.23;118439.88;5053809;28;20159;-71
2022/12/18 01:53:42;;;;;;;58.20;19.85;;;;;;;-143.48;87.54;118439.88;5053666;28;20369;-71
2022/12/18 01:56:12;;;;;;;64.60;20.65;;;;;;;-143.48;87.50;118439.88;5053866;28;20025;-71
2022/12/18 01:58:52;;;;;;;57.53;20.95;;;;;;;-143.48;88.44;118439.88;5053752;28;20036;-71
2022/12/18 02:01:18;;;;;;;67.38;20.35;;;;;;;-143.48;88.08;118439.88;5053598;28;20365;-71
2022/12/18 02:03:44;;;;;;;53.28;19.92;;;;;;;-143.48;86.63;118439.88;5053828;28;20036;-71
2022/12/18 02:06:17;;;;;;;56.53;21.08;;;;;;;-143.48;86.21;118439.88;5053437;28;20047;-71
2022/12/18 02:09:30;;;;;;;53.33;18.80;;;;;;;-143.48;86.81;118439.88;5053463;28;20150;-71
2022/12/18 02:12:18;;;;;;;58.75;19.48;;;;;;;-143.48;86.52;118439.88;5019905;28;20441;-71
2022/12/18 02:15:00;;;;;;;62.03;19.15;;;;;;;-143.48;86.63;118439.88;5053325;28;20483;-71
2022/12/18 02:17:51;;;;;;;65.47;21.30;;;;;;;-143.48;86.24;118439.88;5053341;28;20104;-71
2022/12/18 02:20:25;;;;;;;61.03;21.08;;;;;;;-143.48;85.90;118439.88;5034948;28;20526;-72
2022/12/18 02:23:12;;;;;;;61.95;21.75;;;;;;;-143.48;85.42;118439.88;5053114;28;20037;-71
2022/12/18 02:26:08;;;;;;;68.07;20.60;;;;;;;-143.48;85.07;118439.88;5035430;28;20032;-72
2022/12/18 02:28:41;;;;;;;56.83;20.25;;;;;;;-143.48;86.08;118439.88;5053416;28;20028;-71
2022/12/18 02:31:10;;;;;;;58.88;20.20;;;;;;;-143.48;85.62;118439.88;5053257;28;20033;-71
2022/12/18 02:33:37;;;;;;;62.42;21.15;;;;;;;-143.48;86.14;118439.88;5053093;28;20103;-71
2022/12/18 02:36:05;;;;;;;57.17;19.40;;;;;;;-143.48;85.73;118439.88;5053164;28;20017;-72
2022/12/18 02:38:32;;;;;;;62.17;21.33;;;;;;;-143.48;85.29;118439.88;5053124;28;20036;-72
2022/12/18 02:40:58;;;;;;;66.50;21.10;;;;;;;-143.48;85.46;118439.88;5053064;28;20384;-72
2022/12/18 02:43:23;;;;;;;64.53;21.42;;;;;;;-143.48;85.59;118439.88;5053208;28;20021;-72
2022/12/18 02:45:57;;;;;;;66.15;21.17;;;;;;;-143.48;86.09;118439.88;5052933;28;20029;-71
2022/12/18 02:48:27;;;;;;;59.47;21.25;;;;;;;-143.48;86.46;118439.88;5052850;28;20036;-71
2022/12/18 02:51:03;;;;;;;63.60;21.45;;;;;;;-143.48;85.84;118439.88;5053029;28;20029;-71
2022/12/18 02:53:45;;;;;;;61.90;20.80;;;;;;;-143.48;85.63;118439.88;5053026;28;20021;-71
2022/12/18 02:56:21;;;;;;;56.85;20.92;;;;;;;-143.48;84.95;118439.88;5052993;28;20029;-71
2022/12/18 02:58:59;;;;;;;60.22;19.80;;;;;;;-143.48;85.70;118439.88;5052738;28;20024;-72
2022/12/18 03:01:45;;;;;;;59.40;20.17;;;;;;;-143.48;85.84;118439.88;5034934;28;20033;-71
2022/12/18 03:04:39;;;;;;;61.13;21.35;;;;;;;-143.48;85.70;118439.88;5053047;28;20103;-71
2022/12/18 03:07:23;;;;;;;;;;;;;;;-143.48;84.94;118439.88;5053299;28;20040;-71
2022/12/18 03:09:51;;;;;;;51.38;19.38;;;;;;;-143.48;84.84;118439.88;5052749;28;19916;-71
2022/12/18 03:12:39;;;;;;;63.17;20.65;;;;;;;-143.48;84.81;118439.88;5052786;28;20029;-70
2022/12/18 03:15:13;;;;;;;60.90;20.60;;;;;;;-143.48;84.93;118439.88;5053388;28;20468;-71
2022/12/18 03:17:44;;;;;;;59.28;20.20;;;;;;;-143.48;85.00;118439.88;5053206;28;20075;-72
2022/12/18 03:20:18;;;;;;;56.50;19.23;;;;;;;-143.48;84.82;118439.88;5034929;28;20035;-71
2022/12/18 03:22:47;;;;;;;66.30;20.02;;;;;;;-143.48;84.19;118439.88;5055740;28;20393;-71
2022/12/18 03:25:14;;;;;;;64.43;21.60;;;;;;;-143.48;83.32;118439.88;5056790;28;20021;-71
2022/12/18 03:27:45;;;;;;;59.85;22.30;;;;;;;-143.48;83.03;118439.88;5056522;28;20112;-71
2022/12/18 03:30:12;;;;;;;53.50;19.58;;;;;;;-143.48;83.27;118439.88;5056509;28;20032;-71
2022/12/18 03:32:43;;;;;;;63.42;20.55;;;;;;;-143.48;84.26;118439.88;5056464;28;20024;-71
2022/12/18 03:35:12;;;;;;;55.60;20.15;;;;;;;-143.48;83.27;118439.88;5056440;28;20028;-71
2022/12/18 03:37:38;;;;;;;60.55;20.98;;;;;;;-143.48;82.97;118439.88;5056429;28;20028;-71
2022/12/18 03:40:05;;;;;;;61.53;21.02;;;;;;;-143.48;82.90;118439.88;5056345;28;20052;-71
2022/12/18 03:42:51;;;;;;;64.50;21.02;;;;;;;-143.48;82.59;118439.88;5056202;28;20083;-71
2022/12/18 03:45:37;;;;;;;54.97;21.13;;;;;;;-143.48;82.15;118439.88;5056115;28;20029;-71
2022/12/18 03:48:30;;;;;;;58.22;20.63;;;;;;;-143.48;82.49;118439.88;5056448;28;20368;-71
2022/12/18 03:51:18;;;;;;;60.80;21.42;;;;;;;-143.48;82.80;118439.88;5056167;28;20063;-72
2022/12/18 03:54:03;;;;;;;56.78;20.83;;;;;;;-143.48;82.16;118439.88;5056214;28;20078;-71
2022/12/18 03:56:36;;;;;;;57.53;20.20;;;;;;;-143.48;82.11;118439.88;5056263;28;20021;-72
2022/12/18 03:59:04;;;;;;;51.95;20.20;;;;;;;-143.48;81.42;118439.88;5055927;28;20100;-71
2022/12/18 04:01:40;;;;;;;55.20;19.80;;;;;;;-143.48;81.78;118439.88;5055929;28;20060;-70
2022/12/18 04:04:08;;;;;;;56.70;21.33;;;;;;;-143.48;81.47;118439.88;5055936;28;20056;-70
2022/12/18 04:06:34;;;;;;;57.85;20.80;;;;;;;-143.48;81.23;118439.88;5054543;28;20029;-71
2022/12/18 04:09:00;;;;;;;52.95;20.27;;;;;;;-143.48;80.90;118439.88;5055835;28;20099;-70
2022/12/18 04:11:25;;;;;;;46.58;20.20;;;;;;;-143.48;80.32;118439.88;5055760;28;20032;-71
2022/12/18 04:13:55;;;;;;;57.30;19.42;;;;;;;-143.48;79.99;118439.88;5055593;28;20151;-71
2022/12/18 04:16:20;;;;;;;47.70;19.27;;;;;;;-143.48;80.98;118439.88;5055283;28;20021;-72
2022/12/18 04:18:45;;;;;;;53.95;20.05;;;;;;;-143.48;80.39;118439.88;5055710;28;20028;-71
2022/12/18 04:21:11;;;;;;;53.95;20.40;;;;;;;-143.48;79.53;118439.88;5054626;28;20550;-70
2022/12/18 04:23:36;;;;;;;55.20;20.20;;;;;;;-143.48;80.08;118439.88;5035426;28;20045;-69
2022/12/18 04:26:01;;;;;;;50.08;20.00;;;;;;;-143.48;80.27;118439.88;5053429;28;20021;-70
2022/12/18 04:28:27;;;;;;;49.65;19.83;;;;;;;-143.48;80.09;118439.88;5035587;28;20029;-69
2022/12/18 04:30:52;;;;;;;56.30;19.17;;;;;;;-143.48;80.89;118439.88;5053350;28;20028;-70
2022/12/18 04:33:18;;;;;;;52.63;19.38;;;;;;;-143.48;81.39;118439.88;5053268;28;20021;-70
2022/12/18 04:35:43;;;;;;;44.55;18.13;;;;;;;-143.48;80.81;118439.88;5053279;28;20108;-70
2022/12/18 04:38:09;;;;;;;46.28;18.48;;;;;;;-143.48;80.58;118439.88;5054106;28;20025;-72
2022/12/18 04:40:36;;;;;;;47.78;19.20;;;;;;;-143.48;80.99;118439.88;5055224;28;20032;-71
2022/12/18 04:43:02;;;;;;;49.08;18.35;;;;;;;-143.48;80.78;118439.88;5055134;28;20506;-70
2022/12/18 04:45:27;;;;;;;40.55;17.52;;;;;;;-143.48;80.38;118439.88;5054979;28;20029;-70
2022/12/18 04:47:52;;;;;;;49.83;18.33;;;;;;;-143.48;80.11;118439.88;5055084;28;20028;-70
2022/12/18 04:50:18;;;;;;;47.45;17.42;;;;;;;-143.48;79.76;118439.88;5054991;28;20086;-71
2022/12/18 04:52:43;;;;;;;42.47;17.40;;;;;;;-143.48;79.94;118439.88;5055009;28;20082;-71
2022/12/18 04:55:08;;;;;;;45.15;16.48;;;;;;;-143.48;79.52;118439.88;5054964;28;20021;-71
2022/12/18 04:57:34;;;;;;;42.33;16.80;;;;;;;-143.48;79.34;118439.88;5054978;28;20025;-71
2022/12/18 04:59:59;;;;;;;46.13;17.83;;;;;;;-143.48;79.79;118439.88;5054937;28;20537;-70
2022/12/18 05:02:24;;;;;;;44.78;16.65;;;;;;;-143.48;79.58;118439.88;5054749;28;20105;-71
2022/12/18 05:04:49;;;;;;;44.70;16.83;;;;;;;-143.48;79.28;118439.88;5054802;28;20115;-71
2022/12/18 05:07:15;;;;;;;39.03;16.05;;;;;;;-143.48;78.86;118439.88;5054745;28;20027;-70
2022/12/18 05:09:40;;;;;;;49.47;17.90;;;;;;;-143.48;79.33;118439.88;5054647;28;20029;-70
2022/12/18 05:12:06;;;;;;;43.08;16.45;;;;;;;-143.48;79.12;118439.88;5054751;28;20021;-71
2022/12/18 05:14:31;;;;;;;43.55;17.13;;;;;;;-143.48;79.35;118439.88;5036731;28;20045;-70
2022/12/18 05:16:56;;;;;;;49.25;16.95;;;;;;;-143.48;78.21;118439.88;5036618;28;20052;-70
2022/12/18 05:19:22;;;;;;;41.80;16.05;;;;;;;-143.48;78.86;118439.88;5054519;28;20043;-70
2022/12/18 05:21:47;;;;;;;42.40;16.60;;;;;;;-143.48;78.72;118439.88;5054467;28;20100;-70
2022/12/18 05:24:12;;;;;;;43.85;16.25;;;;;;;-143.48;78.68;118439.88;5054421;28;20114;-70
2022/12/18 05:26:38;;;;;;;46.20;18.33;;;;;;;-143.48;78.90;118439.88;5054423;28;20492;-70
2022/12/18 05:29:03;;;;;;;40.03;16.83;;;;;;;-143.48;78.89;118439.88;5054498;28;20484;-70
2022/12/18 05:31:28;;;;;;;41.97;16.48;;;;;;;-143.48;78.56;118439.88;5054572;28;20029;-70
2022/12/18 05:33:54;;;;;;;40.17;15.93;;;;;;;-143.48;78.68;118439.88;5054572;28;20070;-71
2022/12/18 05:36:19;;;;;;;42.35;16.88;;;;;;;-143.48;78.07;118439.88;5054683;28;20024;-70
2022/12/18 05:38:44;;;;;;;41.70;16.17;;;;;;;-143.48;78.01;118439.88;5054682;28;20104;-70
2022/12/18 05:41:10;;;;;;;37.65;15.90;;;;;;;-143.48;78.23;118439.88;5054640;28;20046;-71
2022/12/18 05:43:37;;;;;;;41.95;16.00;;;;;;;-143.48;78.72;118439.88;5054230;28;20035;-72
2022/12/18 05:46:12;;;;;;;39.83;15.45;;;;;;;-143.48;77.89;118439.88;5054251;28;20511;-70
2022/12/18 05:48:38;;;;;;;38.65;16.02;;;;;;;-143.48;77.74;118439.88;5054597;28;20028;-70
2022/12/18 05:51:09;;;;;;;42.25;16.23;;;;;;;-143.48;78.45;118439.88;5054816;28;20029;-71
2022/12/18 05:53:35;;;;;;;34.70;15.18;;;;;;;-143.48;79.10;118439.88;5055252;28;20386;-70
2022/12/18 05:56:02;;;;;;;37.85;15.35;;;;;;;-143.48;78.65;118439.88;5054165;28;20025;-72
2022/12/18 05:58:28;;;;;;;37.65;14.60;;;;;;;-143.48;78.46;118439.88;5054924;28;20024;-72
2022/12/18 06:00:53;;;;;;;39.25;15.40;;;;;;;-143.48;78.57;118439.88;5054640;28;20039;-71
2022/12/18 06:03:18;;;;;;;40.50;16.02;;;;;;;-143.48;78.22;118439.88;5054939;28;20094;-70
2022/12/18 06:05:45;;;;;;;40.83;14.75;;;;;;;-143.48;78.56;118439.88;5054034;28;20025;-70
2022/12/18 06:08:12;;;;;;;40.05;14.63;;;;;;;-143.48;79.14;118439.88;5054112;28;20369;-69
2022/12/18 06:10:38;;;;;;;37.00;14.60;;;;;;;-143.48;79.16;118439.88;5035937;28;20111;-70
2022/12/18 06:13:03;;;;;;;36.67;14.15;;;;;;;-143.48;78.95;118439.88;5053863;28;20052;-70
2022/12/18 06:15:29;;;;;;;35.25;14.43;;;;;;;-143.48;77.86;118439.88;5053996;28;20021;-71
2022/12/18 06:17:54;;;;;;;34.22;14.65;;;;;;;-143.48;78.39;118439.88;5053783;28;20029;-72
2022/12/18 06:20:20;;;;;;;35.85;14.25;;;;;;;-143.48;78.74;118439.88;5053597;28;20442;-72
2022/12/18 06:22:45;;;;;;;35.47;14.02;;;;;;;-143.48;78.67;118439.88;5052139;28;20118;-72
2022/12/18 06:25:10;;;;;;;33.58;13.63;;;;;;;-143.48;78.40;118439.88;5053645;28;20033;-71
2022/12/18 06:27:36;;;;;;;28.85;13.02;;;;;;;-143.48;78.43;118439.88;5053400;28;20021;-71
2022/12/18 06:30:02;;;;;;;31.52;13.43;;;;;;;-143.48;78.35;118439.88;5052838;28;20052;-70
2022/12/18 06:32:28;;;;;;;30.13;12.75;;;;;;;-143.48;77.99;118439.88;5052742;28;20110;-70
2022/12/18 06:34:55;;;;;;;34.90;13.43;;;;;;;-143.48;77.58;118439.88;5052626;28;20075;-70
2022/12/18 06:37:20;;;;;;;31.98;13.20;;;;;;;-143.48;77.25;118439.88;5052938;28;20017;-72
2022/12/18 06:39:45;;;;;;;29.30;12.88;;;;;;;-143.48;77.55;118439.88;5034595;28;20492;-70
2022/12/18 06:42:11;;;;;;;25.40;10.80;;;;;;;-143.48;77.83;118439.88;5052513;28;20032;-71
2022/12/18 06:44:37;;;;;;;34.40;13.77;;;;;;;-143.48;77.39;118439.88;5053043;28;20419;-71
2022/12/18 06:47:02;;;;;;;32.20;12.60;;;;;;;-143.48;77.53;118439.88;5053000;28;20021;-71
2022/12/18 06:49:27;;;;;;;34.42;13.07;;;;;;;-143.48;77.43;118439.88;5053012;28;20392;-70
2022/12/18 06:51:53;;;;;;;29.13;12.27;;;;;;;-143.48;78.17;118439.88;5052951;28;20146;-70
2022/12/18 06:54:18;;;;;;;29.33;12.32;;;;;;;-143.48;78.20;118439.88;5052911;28;20025;-71
2022/12/18 06:56:45;;;;;;;30.42;12.75;;;;;;;-143.48;78.38;118439.88;5054746;28;20163;-72
2022/12/18 06:59:12;;;;;;;30.50;13.10;;;;;;;-143.48;78.24;118439.88;5057255;28;20104;-71
2022/12/18 07:01:37;;;;;;;31.45;13.27;;;;;;;-143.48;78.69;118439.88;5056962;28;20106;-70
2022/12/18 07:04:03;;;;;;;30.52;12.70;;;;;;;-143.48;78.64;118439.88;5056997;28;20437;-70
2022/12/18 07:06:28;;;;;;;31.45;13.07;;;;;;;-143.48;78.43;118439.88;5056913;28;20025;-70
2022/12/18 07:08:54;;;;;;;28.73;12.43;;;;;;;-143.48;78.56;118439.88;5057000;28;20029;-70
2022/12/18 07:11:20;;;;;;;30.92;12.18;;;;;;;-143.48;78.80;118439.88;5056881;28;20051;-71
2022/12/18 07:13:45;;;;;;;27.52;11.77;;;;;;;-143.48;78.85;118439.88;5039081;28;20100;-70
2022/12/18 07:16:16;;;;;;;27.25;12.68;;;;;;;-143.48;78.38;118439.88;5056911;28;20056;-70
2022/12/18 07:18:41;;;;;;;31.15;12.90;;;;;;;-143.48;77.96;118439.88;5056790;28;20056;-70
2022/12/18 07:21:09;;;;;;;30.42;12.23;;;;;;;-143.48;79.32;118439.88;5056738;28;20017;-71
2022/12/18 07:23:35;;;;;;;33.28;12.65;;;;;;;-143.48;78.56;118439.88;5056608;28;20479;-71
2022/12/18 07:26:06;;;;;;;25.13;11.63;;;;;;;-143.48;77.33;118439.88;5056484;28;20059;-71
2022/12/18 07:28:33;;;;;;;26.85;12.70;;;;;;;-143.48;77.83;118439.88;5056616;28;20029;-72
2022/12/18 07:31:09;;;;;;;26.25;12.48;;;;;;;-143.48;77.77;118439.88;5056635;28;20056;-71
2022/12/18 07:33:35;;;;;;;28.85;12.02;;;;;;;-143.48;77.68;118439.88;5056495;28;20029;-71
2022/12/18 07:36:05;;;;;;;26.13;12.07;;;;;;;-143.48;77.55;118439.88;5056559;28;20534;-70
2022/12/18 07:38:32;;;;;;;27.88;12.27;;;;;;;-143.48;77.59;118439.88;5056487;28;20025;-71
2022/12/18 07:41:16;;;;;;;28.40;11.45;;;;;;;-143.48;77.73;118439.88;5056458;28;20434;-70
2022/12/18 07:43:42;;;;;;;26.38;11.80;;;;;;;-143.48;76.80;118439.88;5056293;28;20059;-70
2022/12/18 07:46:08;;;;;;;25.33;11.85;;;;;;;-143.48;76.80;118439.88;5038291;28;20025;-70
2022/12/18 07:48:33;;;;;;;24.58;12.13;;;;;;;-143.48;76.96;118439.88;5038259;28;20100;-70
2022/12/18 07:50:59;;;;;;;25.27;11.73;;;;;;;-143.48;76.39;118439.88;5056168;28;20094;-70
2022/12/18 07:53:26;;;;;;;25.77;12.23;;;;;;;-143.48;75.71;118439.88;5056082;28;20484;-70
2022/12/18 07:55:56;;;;;;;28.15;13.57;;;;;;;-143.48;75.79;118439.88;5056245;28;20104;-70
2022/12/18 07:58:22;;;;;;;32.58;15.85;;;;;;;-143.48;75.93;118439.88;5054748;28;20025;-70
2022/12/18 08:00:47;;;;;;;33.60;16.45;;;;;;;-143.48;76.80;118439.88;5038038;28;20025;-70
2022/12/18 08:03:13;;;;;;;32.10;14.98;;;;;;;-143.48;77.22;118439.88;5056445;28;20111;-71
2022/12/18 08:05:39;;;;;;;30.58;14.00;;;;;;;-143.48;77.38;118439.88;5056243;28;20028;-70
2022/12/18 08:08:04;;;;;;;33.08;14.27;;;;;;;-143.48;77.25;118439.88;5037636;28;20028;-71
2022/12/18 08:10:29;;;;;;;27.88;12.93;;;;;;;-143.48;77.22;118439.88;5056389;28;20024;-71
2022/12/18 08:12:55;;;;;;;28.85;12.75;;;;;;;-143.48;77.67;118439.88;5056173;28;20025;-72
2022/12/18 08:15:20;;;;;;;32.13;12.80;;;;;;;-143.48;76.18;118439.88;5055809;28;20025;-71
2022/12/18 08:17:45;;;;;;;29.05;13.23;;;;;;;-143.48;76.31;118439.88;5037644;28;20476;-72
2022/12/18 08:20:13;;;;;;;25.58;12.32;;;;;;;-143.48;76.35;118439.88;5037646;28;20468;-71
2022/12/18 08:22:39;;;;;;;27.33;12.98;;;;;;;-143.48;75.80;118439.88;5037453;28;20017;-71
2022/12/18 08:25:04;;;;;;;29.20;12.80;;;;;;;-143.48;75.99;118439.88;5055311;28;20028;-71
2022/12/18 08:27:30;;;;;;;26.80;12.80;;;;;;;-143.48;74.91;118439.88;5055628;28;20427;-71
2022/12/18 08:29:56;;;;;;;25.27;12.73;;;;;;;-143.48;74.99;118439.88;5055541;28;20029;-73
2022/12/18 08:32:22;;;;;;;24.17;11.15;;;;;;;-143.48;75.35;118439.88;5055974;28;20025;-71
2022/12/18 08:34:47;;;;;;;27.95;12.25;;;;;;;-143.48;75.04;118439.88;5057353;28;20361;-73
2022/12/18 08:37:12;;;;;;;23.55;11.80;;;;;;;-143.48;75.63;118439.88;5037283;28;20041;-72
2022/12/18 08:39:37;;;;;;;20.65;10.27;;;;;;;-143.48;74.12;118439.88;5055282;28;20040;-72
2022/12/18 08:44:47;;;;;;;24.75;11.27;;;;;;;-143.48;73.87;118439.88;5055101;28;20059;-72
2022/12/18 08:47:12;;;;;;;25.77;12.40;;;;;;;-143.48;74.29;118439.88;5055096;28;20021;-72
2022/12/18 08:49:37;;;;;;;26.33;12.95;;;;;;;-143.48;74.61;118439.88;5055094;28;20024;-72
2022/12/18 08:52:03;;;;;;;26.58;12.77;;;;;;;-143.48;74.80;118439.88;5055129;28;20063;-71
2022/12/18 08:54:28;;;;;;;26.70;12.80;;;;;;;-143.48;74.85;118439.88;5055080;28;20068;-72
2022/12/18 08:56:54;;;;;;;26.92;12.38;;;;;;;-143.48;74.25;118439.88;5037120;28;20392;-71
2022/12/18 08:59:19;;;;;;;25.10;12.20;;;;;;;-143.48;73.86;118439.88;5054931;28;20052;-71
2022/12/18 09:01:45;;;;;;;24.77;14.07;;;;;;;-143.48;74.36;118439.88;5055574;28;20104;-70
2022/12/18 09:04:11;;;;;;;26.73;13.02;;;;;;;-143.48;73.64;118439.88;5036978;28;20021;-72
2022/12/18 09:06:37;;;;;;;26.27;13.25;;;;;;;-143.48;74.64;118439.88;5054732;28;20465;-70
2022/12/18 09:09:03;;;;;;;26.23;12.95;;;;;;;-143.48;74.92;118439.88;5036871;28;20021;-72
2022/12/18 09:11:30;;;;;;;23.05;10.18;;;;;;;-143.48;73.40;118439.88;5053890;28;20039;-71
2022/12/18 09:13:56;;;;;;;23.73;12.20;;;;;;;-143.48;73.75;118439.88;5054938;28;20116;-72
2022/12/18 09:16:23;;;;;;;24.77;12.50;;;;;;;-143.48;74.54;118439.88;5036826;28;20037;-73
2022/12/18 09:18:48;;;;;;;25.20;11.65;;;;;;;-143.48;74.35;118439.88;5054009;28;20645;-73
2022/12/18 09:21:16;;;;;;;24.42;11.75;;;;;;;-143.48;74.59;118439.88;5054565;28;20052;-72
2022/12/18 09:23:42;;;;;;;24.85;12.23;;;;;;;-143.48;74.41;118439.88;5049808;28;20052;-70
2022/12/18 09:26:09;;;;;;;23.15;12.63;;;;;;;-143.48;73.79;118439.88;5034565;28;20404;-72
2022/12/18 09:28:34;;;;;;;24.10;12.35;;;;;;;-143.48;74.24;118439.88;5034416;28;20499;-71
2022/12/18 09:31:05;;;;;;;24.30;12.15;;;;;;;-143.48;72.75;118439.88;5034644;28;20025;-71
2022/12/18 09:33:30;;;;;;;22.70;11.60;;;;;;;-143.48;72.25;118439.88;5034367;28;20021;-72
2022/12/18 09:35:55;;;;;;;27.13;12.20;;;;;;;-143.48;72.79;118439.88;5034404;28;20071;-71
2022/12/18 09:38:22;;;;;;;24.55;11.43;;;;;;;-143.48;73.62;118439.88;5034321;28;20043;-72
2022/12/18 09:40:53;;;;;;;22.08;11.52;;;;;;;-143.48;72.42;118439.88;5034357;28;20053;-71
2022/12/18 09:43:27;;;;;;;25.35;12.18;;;;;;;-143.48;72.19;118439.88;5033012;28;20021;-70
2022/12/18 09:46:02;;;;;;;24.00;11.75;;;;;;;-143.48;72.90;118439.88;5034229;28;20021;-72
2022/12/18 09:48:35;;;;;;;23.30;11.73;;;;;;;-143.48;72.38;118439.88;5032694;28;20029;-72
2022/12/18 09:51:18;;;;;;;23.48;11.73;;;;;;;-143.48;72.45;118439.88;5034409;28;20025;-73
2022/12/18 09:54:04;;;;;;;22.65;11.48;;;;;;;-143.48;72.46;118439.88;5034030;28;20025;-71
2022/12/18 09:56:36;;;;;;;33.28;11.50;;;;;;;-143.48;71.68;118439.88;5033980;28;20032;-71
2022/12/18 09:59:03;;;;;;;25.00;11.30;;;;;;;-143.48;72.67;118439.88;5049233;28;20026;-70
2022/12/18 10:01:30;;;;;;;20.95;10.40;;;;;;;-143.48;73.28;118439.88;5033808;28;20037;-70
2022/12/18 10:03:56;;;;;;;25.75;10.77;;;;;;;-143.48;73.79;118439.88;5033768;28;20087;-70
2022/12/18 10:06:26;;;;;;;25.75;11.35;;;;;;;-143.48;72.68;118439.88;5032382;28;20025;-71
2022/12/18 10:09:16;;;;;;;21.08;10.80;;;;;;;-143.48;72.98;118439.88;5033591;28;20033;-71
2022/12/18 10:12:05;;;;;;;20.45;11.43;;;;;;;-143.48;73.00;118439.88;5033507;28;20079;-70
2022/12/18 10:14:42;;;;;;;20.27;10.40;;;;;;;-143.48;72.93;118439.88;5033528;28;20025;-71
2022/12/18 10:17:44;;;;;;;23.83;11.43;;;;;;;-143.48;72.28;118439.88;5033641;28;20029;-71
2022/12/18 10:20:18;;;;;;;21.80;10.70;;;;;;;-143.48;71.95;118439.88;5032276;28;20050;-72
2022/12/18 10:23:11;;;;;;;23.63;10.95;;;;;;;-143.48;71.71;118439.88;5032071;28;20044;-71
2022/12/18 10:25:51;;;;;;;21.67;11.02;;;;;;;-143.48;72.51;118439.88;5031983;28;20095;-71
2022/12/18 10:28:19;;;;;;;23.08;11.23;;;;;;;-143.48;72.57;118439.88;5033286;28;20140;-71
2022/12/18 10:30:44;;;;;;;20.63;10.35;;;;;;;-143.48;72.19;118439.88;5033396;28;20033;-73
2022/12/18 10:33:22;;;;;;;22.27;11.15;;;;;;;-143.48;71.87;118439.88;5033688;28;20029;-73
2022/12/18 10:35:52;;;;;;;23.98;11.10;;;;;;;-143.48;71.93;118439.88;5033787;28;20065;-73
2022/12/18 10:38:18;;;;;;;21.33;10.60;;;;;;;-143.48;71.95;118439.88;5048988;28;20028;-72
2022/12/18 10:40:53;;;;;;;19.98;10.90;;;;;;;-143.48;72.00;118439.88;5033692;28;20036;-72
2022/12/18 10:43:36;;;;;;;21.95;10.80;;;;;;;-143.48;72.21;118439.88;5033525;28;20031;-74
2022/12/18 10:46:07;;;;;;;20.10;10.55;;;;;;;-143.48;72.17;118439.88;5032259;28;20083;-73
2022/12/18 10:48:47;;;;;;;21.70;11.27;;;;;;;-143.48;71.66;118439.88;5033455;28;20528;-72
2022/12/18 10:51:19;;;;;;;23.02;10.40;;;;;;;-143.48;70.85;118439.88;5033397;28;20033;-69
2022/12/18 10:53:53;;;;;;;26.13;11.52;;;;;;;-143.48;71.04;118439.88;5033301;28;20048;-71
2022/12/18 10:56:20;;;;;;;25.92;11.30;;;;;;;-143.48;71.37;118439.88;5033699;28;20026;-72
2022/12/18 10:58:55;;;;;;;21.45;11.13;;;;;;;-143.48;70.92;118439.88;5032148;28;20029;-72
2022/12/18 11:01:21;;;;;;;22.85;10.68;;;;;;;-143.48;71.16;118439.88;5032124;28;20026;-73
2022/12/18 11:04:00;;;;;;;22.75;10.52;;;;;;;-143.48;70.89;118439.88;5033248;28;20448;-71
2022/12/18 11:06:26;;;;;;;22.02;10.90;;;;;;;-143.48;70.02;118439.88;5032967;28;20364;-74
2022/12/18 11:09:04;;;;;;;22.42;11.57;;;;;;;-143.48;71.10;118439.88;5048454;28;20062;-73